Impacts METAR Board
IDs:

KDCA - Washington/National, VA, US

Updated at: 1200 UTC 21 Sep 2018
Potential Impact None Slight Moderate High
Time 21/00Z 21/01Z 21/02Z 21/03Z 21/04Z 21/05Z 21/06Z 21/07Z 21/08Z 21/09Z 21/10Z 21/11Z 21/12Z
Temp76 75 74 74 73 72 72 72 72 72 71 71 71
Dewpt67 67 67 66 66 65 65 66 65 65 66 66 66
Altim30.18 30.20 30.22 30.22 30.23 30.22 30.22 30.22 30.21 30.22 30.23 30.23 30.24
VIS10 10 10 10 10 10 10 10 10 10 10 10 10
CIG40 39 41 40 20 22 16 40 38 18 18 37 20
CoverOVCOVCOVCOVCOVCOVCOVCOVCOVCOVCOVCOVCOVC
FltCatVFRVFRVFRVFRMVFRMVFRMVFRVFRVFRMVFRMVFRVFRMVFR
WX--------------------------
WDir150160170160160150170180180190180170140
WSpd7 10 9 10 9 8 8 7 7 8 6 6 6
WGst-- -- -- -- -- -- -- -- -- -- -- -- --
Raw hourly METARs
KDCA 202352Z 15007KT 10SM FEW027 OVC040 24/19 A3018 RMK AO2 SLP218 T02440194 10283 20244 53007
KDCA 210052Z 16010KT 10SM FEW022 OVC039 24/19 A3020 RMK AO2 SLP227 T02390194
KDCA 210152Z 17009KT 10SM OVC041 23/19 A3022 RMK AO2 SLP233 T02330194
KDCA 210252Z 16010KT 10SM OVC040 23/19 A3022 RMK AO2 SLP233 T02330189 51015
KDCA 210352Z 16009KT 10SM BKN020 OVC041 23/19 A3023 RMK AO2 SLP235 T02280189
KDCA 210452Z 15008KT 10SM BKN022 OVC038 22/18 A3022 RMK AO2 SLP232 T02220183 402830206
KDCA 210604Z 17008KT 10SM BKN016 OVC038 22/18 A3022 RMK AO2 T02220183
KDCA 210652Z 18007KT 10SM SCT016 OVC040 22/19 A3022 RMK AO2 SLP232 T02220189
KDCA 210752Z 18007KT 10SM OVC038 22/18 A3021 RMK AO2 SLP230 T02220183
KDCA 210852Z 19008KT 10SM BKN018 OVC040 22/18 A3022 RMK AO2 SLP232 T02220183 55001
KDCA 211001Z 18006KT 10SM BKN018 OVC039 22/19 A3023 RMK AO2 T02170189
KDCA 211052Z 17006KT 10SM SCT020 OVC037 22/19 A3023 RMK AO2 RAB23E34 SLP237 P0000 T02170189
KDCA 211152Z 14006KT 10SM BKN020 OVC035 22/19 A3024 RMK AO2 RAB24E37 SLP239 P0000 60000 T02170189 10222 20217 51007



Page loaded:  12:26 UTC  |   05:26 AM Pacific  |   06:26 AM Mountain  |   07:26 AM Central  |   08:26 AM Eastern

 

ADVISORIES

FORECASTS

FORECASTS

OBSERVATIONS

USER TOOLS

ABOUT US